Main page
METAR-TAF:

METAR-TAF

Airports :

Waddington, England

RAF Waddington

latitude: 53-10N, longitude: 000-31W, elevation: 68 m

Current weather observation

The report was made 1 hour and 20 minutes ago, at 06:50 UTC
Wind 6 kt from the East
Temperature 4°C
Humidity 81%
Pressure 1026 hPa
Visibility 10 km or more
Few clouds at a height of 3000 ft

METAR: EGXW 040650Z 09006KT 9999 FEW030 04/01 Q1026 BLU

Time: 08:10 (08:10 UTC)

Forecast

The report was made 3 hours and 50 minutes ago, at 04:20 UTC
Forecast valid from 04 at 06 UTC to 04 at 24 UTC
Wind 5 kt from the East
Visibility 10 km or more
Scattered clouds at a height of 3200 ft
Probability 30%
from 04 at 21 UTC to 04 at 24 UTC
Visibility: 7000 m
mist

TAF: EGXW 040420Z 0406/0424 08005KT 9999 SCT032 PROB30 0421/0424 7000 BR

Weather observations and forecasts of more than 4000 airports (METAR and TAF reports).

The available stations are represented by yellow and red dots on the map.

Hover mouse over dot to see the name of the station.

Then click to see weather observations and forecasts.

To change the map : click on the green buttons with a black cross to zoom in, on the green button with a dash to zoom out, or on the green arrows for adjacent maps.


METAR-TAF: